This is the latest recevied weather packets stored in our database for station/object KJ5EHN. If no packets are shown the sender has not sent any weather packets the latest 1 day(s).
| Time | Temp. | Humidity | Pressure | Rain* | Wind** | Luminosity | Snow |
|---|---|---|---|---|---|---|---|
| 1778107386 | 15.56° C | 77% | 1014.2 hPa | 0 mm | - | - | - |
| 1778106777 | 16.11° C | 77% | 1014.1 hPa | 0 mm | - | - | - |
| 1778105566 | 16.11° C | 75% | 1013.8 hPa | 0 mm | - | - | - |
| 1778104655 | 16.67° C | 74% | 1013.6 hPa | 0 mm | - | - | - |
| 1778103443 | 16.11° C | 74% | 1014 hPa | 0 mm | - | - | - |
| 1778102532 | 16.11° C | 74% | 1013.7 hPa | 0 mm | - | - | - |
| 1778099803 | 15.56° C | 74% | 1014.2 hPa | 0 mm | - | - | - |
| 1778098287 | 15.56° C | 73% | 1014.4 hPa | 0 mm | - | - | - |
| 1778094345 | 14.44° C | 75% | 1014.3 hPa | 0 mm | - | - | - |
| 1778093739 | 14.44° C | 76% | 1013.7 hPa | 0 mm | - | - | - |
| 1778092223 | 13.33° C | 78% | 1013.4 hPa | 0 mm | - | - | - |
| 1778091315 | 13.33° C | 78% | 1013.8 hPa | 0 mm | - | - | - |
| 1778090405 | 13.33° C | 79% | 1013.4 hPa | 0 mm | - | - | - |
| 1778089192 | 12.78° C | 81% | 1013.6 hPa | 0 mm | - | - | - |
| 1778088890 | 12.78° C | 82% | 1013.7 hPa | 0 mm | - | - | - |
| 1778087980 | 12.78° C | 83% | 1014.4 hPa | 0 mm | - | - | - |
| 1778086469 | 12.22° C | 84% | 1015.8 hPa | 0 mm | - | - | - |
| 1778086164 | 12.22° C | 84% | 1015.7 hPa | 0 mm | - | - | - |
| 1778085861 | 12.22° C | 84% | 1015.7 hPa | 0 mm | - | - | - |
| 1778085554 | 12.22° C | 84% | 1015 hPa | 0 mm | - | - | - |
| 1778084949 | 11.67° C | 85% | 1014.2 hPa | 0 mm | - | - | - |
| 1778083436 | 12.22° C | 85% | 1014.5 hPa | 0 mm | - | - | - |
| 1778081708 | 11.67° C | 87% | 1015.4 hPa | 0 mm | - | - | - |
| 1778080800 | 12.22° C | 83% | 1015.4 hPa | 0 mm | - | - | - |
| 1778079588 | 12.22° C | 81% | 1015 hPa | 0 mm | - | - | - |
* Rain latest hour (hover to see other rain measurements)
** Current wind speed in m/s (hover to see current wind gust speed)